createdAt,value
2022-08-08T00:00:52.315Z,0.93
2022-08-08T00:03:19.906Z,1.30
2022-08-08T00:06:16.555Z,1.00
2022-08-08T00:09:02.433Z,0.82
2022-08-08T00:12:03.033Z,1.23
2022-08-08T00:14:48.409Z,1.20
2022-08-08T00:17:26.281Z,1.30
2022-08-08T00:20:07.318Z,1.10
2022-08-08T00:22:51.917Z,1.10
2022-08-08T00:25:25.518Z,0.93
2022-08-08T00:28:34.631Z,0.90
2022-08-08T00:31:00.978Z,1.08
2022-08-08T00:34:17.320Z,0.80
2022-08-08T00:36:51.928Z,0.98
2022-08-08T00:41:05.955Z,0.98
2022-08-08T00:42:50.729Z,1.05
2022-08-08T00:46:00.305Z,1.10
2022-08-08T00:49:22.654Z,0.87
2022-08-08T00:51:59.335Z,0.77
2022-08-08T00:54:57.873Z,1.00
2022-08-08T00:57:42.906Z,1.15
2022-08-08T01:00:19.791Z,1.00
2022-08-08T01:04:02.027Z,0.60
2022-08-08T01:07:06.245Z,0.88
2022-08-08T01:09:59.243Z,1.10
2022-08-08T01:13:09.128Z,0.70
2022-08-08T01:15:54.344Z,0.82
2022-08-08T01:18:56.204Z,1.00
2022-08-08T01:22:13.558Z,0.98
2022-08-08T01:24:39.270Z,0.93
2022-08-08T01:27:43.522Z,0.90
2022-08-08T01:30:40.911Z,0.90
2022-08-08T01:34:00.292Z,0.80
2022-08-08T01:36:48.634Z,1.00
2022-08-08T01:39:34.864Z,1.27
2022-08-08T01:42:06.006Z,1.10
2022-08-08T01:44:53.267Z,0.90
2022-08-08T01:48:15.419Z,1.03
2022-08-08T01:51:06.232Z,0.90
2022-08-08T01:55:15.491Z,0.73
2022-08-08T01:57:25.981Z,1.00
2022-08-08T02:00:18.950Z,1.12
2022-08-08T02:03:54.851Z,1.10
2022-08-08T02:06:33.129Z,0.95
2022-08-08T02:09:18.085Z,1.20
2022-08-08T02:12:00.145Z,1.17
2022-08-08T02:14:49.744Z,1.20
2022-08-08T02:18:20.928Z,0.90
2022-08-08T02:21:21.222Z,0.88
2022-08-08T02:23:56.030Z,1.10
2022-08-08T02:26:33.094Z,1.10
2022-08-08T02:29:46.899Z,1.20
2022-08-08T02:32:45.434Z,1.20
2022-08-08T02:35:28.305Z,1.17
2022-08-08T02:38:15.117Z,1.23
2022-08-08T02:41:58.403Z,1.10
2022-08-08T02:45:01.686Z,1.10
2022-08-08T02:47:47.172Z,0.80
2022-08-08T02:50:47.239Z,1.15
2022-08-08T02:53:35.989Z,1.05
2022-08-08T02:56:15.619Z,0.90
2022-08-08T02:59:05.910Z,1.10
2022-08-08T03:02:30.464Z,1.00
2022-08-08T03:05:32.968Z,1.30
2022-08-08T03:08:27.072Z,1.00
2022-08-08T03:11:47.827Z,1.10
2022-08-08T03:16:04.026Z,1.23
2022-08-08T03:17:59.940Z,1.40
2022-08-08T03:20:43.621Z,1.00
2022-08-08T03:23:17.860Z,1.30
2022-08-08T03:25:47.001Z,1.17
2022-08-08T03:28:21.732Z,1.20
2022-08-08T03:31:21.970Z,1.37
2022-08-08T03:33:56.196Z,1.48
2022-08-08T03:36:30.481Z,1.23
2022-08-08T03:39:15.035Z,1.20
2022-08-08T03:42:27.291Z,1.30
2022-08-08T03:44:34.847Z,1.23
2022-08-08T03:47:13.989Z,1.35
2022-08-08T03:49:59.496Z,1.33
2022-08-08T03:52:32.127Z,1.50
2022-08-08T03:55:09.920Z,1.45
2022-08-08T03:58:31.041Z,1.50
2022-08-08T04:01:01.715Z,1.10
2022-08-08T04:03:59.836Z,1.50
2022-08-08T04:06:24.160Z,1.67
2022-08-08T04:09:06.731Z,1.35
2022-08-08T04:11:57.626Z,1.20
2022-08-08T04:14:34.472Z,1.30
2022-08-08T04:17:07.109Z,1.37
2022-08-08T04:19:51.870Z,1.30
2022-08-08T04:22:29.534Z,1.25
2022-08-08T04:24:58.404Z,1.30
2022-08-08T04:28:03.492Z,1.45
2022-08-08T04:30:18.608Z,1.42
2022-08-08T04:32:50.545Z,1.30
2022-08-08T04:35:20.316Z,1.50
2022-08-08T04:37:52.172Z,1.37
2022-08-08T04:40:23.724Z,1.27
2022-08-08T04:42:57.117Z,1.30
2022-08-08T04:45:26.385Z,1.27
2022-08-08T04:47:57.181Z,1.60
2022-08-08T04:50:26.748Z,1.20
2022-08-08T04:53:05.233Z,1.30
2022-08-08T04:55:55.508Z,1.67
2022-08-08T04:58:25.391Z,1.33
2022-08-08T05:00:54.340Z,1.75
2022-08-08T05:04:08.363Z,1.40
2022-08-08T05:06:13.083Z,2.00
2022-08-08T05:08:51.825Z,1.73
2022-08-08T05:11:24.314Z,1.87
2022-08-08T05:13:54.823Z,1.87
2022-08-08T05:16:52.824Z,1.63
2022-08-08T05:20:10.050Z,2.00
2022-08-08T05:22:03.388Z,2.53
2022-08-08T05:24:32.053Z,2.00
2022-08-08T05:26:59.835Z,1.80
2022-08-08T05:29:29.269Z,1.90
2022-08-08T05:32:03.732Z,1.87
2022-08-08T05:34:55.253Z,1.90
2022-08-08T05:37:39.057Z,2.20
2022-08-08T05:40:14.637Z,2.22
2022-08-08T05:42:44.812Z,2.30
2022-08-08T05:45:25.448Z,2.17
2022-08-08T05:48:08.763Z,2.10
2022-08-08T05:50:38.685Z,1.95
2022-08-08T05:53:53.692Z,2.10
2022-08-08T05:56:07.802Z,2.00
2022-08-08T05:58:53.702Z,1.95
2022-08-08T06:01:55.822Z,1.85
2022-08-08T06:04:23.655Z,2.53
2022-08-08T06:06:53.772Z,2.10
2022-08-08T06:10:00.215Z,2.07
2022-08-08T06:12:29.654Z,2.25
2022-08-08T06:15:01.050Z,2.28
2022-08-08T06:17:50.783Z,1.70
2022-08-08T06:20:25.623Z,2.00
2022-08-08T06:22:54.422Z,1.80
2022-08-08T06:25:58.935Z,1.90
2022-08-08T06:28:29.259Z,1.90
2022-08-08T06:31:02.992Z,1.52
2022-08-08T06:34:27.607Z,1.65
2022-08-08T06:36:53.540Z,1.80
2022-08-08T06:39:22.776Z,2.00
2022-08-08T06:42:02.534Z,1.77
2022-08-08T06:44:42.332Z,1.90
2022-08-08T06:47:10.667Z,2.25
2022-08-08T06:49:55.144Z,1.43
2022-08-08T06:52:27.606Z,2.12
2022-08-08T06:54:56.684Z,2.00
2022-08-08T06:57:25.140Z,1.83
2022-08-08T07:00:10.218Z,1.52
2022-08-08T07:02:45.376Z,1.60
2022-08-08T07:05:20.811Z,1.70
2022-08-08T07:07:52.685Z,1.87
2022-08-08T07:10:25.365Z,1.75
2022-08-08T07:13:06.058Z,1.75
2022-08-08T07:16:06.128Z,1.90
2022-08-08T07:18:55.743Z,1.90
2022-08-08T07:21:31.317Z,1.90
2022-08-08T07:24:19.781Z,1.90
2022-08-08T07:26:53.732Z,2.45
2022-08-08T07:29:59.076Z,2.10
2022-08-08T07:32:16.933Z,1.70
2022-08-08T07:34:59.583Z,1.87
2022-08-08T07:37:55.710Z,1.60
2022-08-08T07:40:29.625Z,2.00
2022-08-08T07:43:04.138Z,1.57
2022-08-08T07:46:05.261Z,1.87
2022-08-08T07:48:29.780Z,1.80
2022-08-08T07:51:00.935Z,1.98
2022-08-08T07:54:00.996Z,2.00
2022-08-08T07:56:37.372Z,2.93
2022-08-08T07:59:14.917Z,1.87
2022-08-08T08:02:36.435Z,1.85
2022-08-08T08:04:44.274Z,2.20
2022-08-08T08:07:16.064Z,2.08
2022-08-08T08:09:44.695Z,1.97
2022-08-08T08:12:35.487Z,2.00
2022-08-08T08:15:06.979Z,1.80
2022-08-08T08:17:48.944Z,1.90
2022-08-08T08:20:18.546Z,1.42
2022-08-08T08:22:47.436Z,1.73
2022-08-08T08:25:17.029Z,1.70
2022-08-08T08:27:47.414Z,2.50
2022-08-08T08:30:15.240Z,1.70
2022-08-08T08:32:51.549Z,1.85
2022-08-08T08:35:21.677Z,1.80
2022-08-08T08:40:48.667Z,2.08
2022-08-08T08:43:19.575Z,1.75
2022-08-08T08:45:48.550Z,1.70
2022-08-08T08:48:19.523Z,1.93
2022-08-08T08:50:52.151Z,1.58
2022-08-08T08:53:28.387Z,1.90
2022-08-08T08:56:11.167Z,1.40
2022-08-08T08:58:46.948Z,1.90
2022-08-08T09:01:20.950Z,1.70
2022-08-08T09:03:51.511Z,2.00
2022-08-08T09:06:33.287Z,2.30
2022-08-08T09:09:25.849Z,1.92
2022-08-08T09:12:07.654Z,1.75
2022-08-08T09:14:42.758Z,1.70
2022-08-08T09:17:18.280Z,2.35
2022-08-08T09:22:02.281Z,2.05
2022-08-08T09:22:39.261Z,2.10
2022-08-08T09:25:09.761Z,2.30
2022-08-08T09:27:50.811Z,2.50
2022-08-08T09:30:28.648Z,1.92
2022-08-08T09:33:12.663Z,3.78
2022-08-08T09:35:49.813Z,3.35
2022-08-08T09:38:53.085Z,3.90
2022-08-08T09:41:33.805Z,2.57
2022-08-08T09:44:29.883Z,2.33
2022-08-08T09:47:25.736Z,2.40
2022-08-08T09:49:58.882Z,2.78
2022-08-08T09:52:54.065Z,2.05
2022-08-08T09:56:03.689Z,2.23
2022-08-08T09:58:26.118Z,2.20
2022-08-08T10:01:15.509Z,1.98
2022-08-08T10:04:02.012Z,2.17
2022-08-08T10:06:32.619Z,2.45
2022-08-08T10:09:03.659Z,2.47
2022-08-08T10:12:26.574Z,3.28
2022-08-08T10:14:28.527Z,2.20
2022-08-08T10:17:38.768Z,2.42
2022-08-08T10:20:00.653Z,2.78
2022-08-08T10:22:29.170Z,2.13
2022-08-08T10:25:05.866Z,2.20
2022-08-08T10:27:42.222Z,1.90
2022-08-08T10:30:16.505Z,1.87
2022-08-08T10:33:01.096Z,2.55
2022-08-08T10:36:08.598Z,2.10
2022-08-08T10:38:20.121Z,2.20
2022-08-08T10:40:52.107Z,2.47
2022-08-08T10:43:22.987Z,2.20
2022-08-08T10:45:56.032Z,2.62
2022-08-08T10:48:38.891Z,2.87
2022-08-08T10:51:26.261Z,2.67
2022-08-08T10:53:56.386Z,2.75
2022-08-08T10:56:35.006Z,2.62
2022-08-08T10:59:14.322Z,3.00
2022-08-08T11:01:49.593Z,3.20
2022-08-08T11:04:29.993Z,3.70
2022-08-08T11:07:07.158Z,4.00
2022-08-08T11:09:35.322Z,3.15
2022-08-08T11:12:12.652Z,3.55
2022-08-08T11:14:59.940Z,3.00
2022-08-08T11:18:00.017Z,3.40
2022-08-08T11:20:27.699Z,3.83
2022-08-08T11:23:01.057Z,3.83
2022-08-08T11:25:52.305Z,4.30
2022-08-08T11:28:30.885Z,3.50
2022-08-08T11:31:04.509Z,4.12
2022-08-08T11:33:51.622Z,4.50
2022-08-08T11:36:22.727Z,3.90
2022-08-08T11:38:56.962Z,3.90
2022-08-08T11:41:28.063Z,3.83
2022-08-08T11:44:01.228Z,3.92
2022-08-08T11:46:32.791Z,4.05
2022-08-08T11:49:04.335Z,3.72
2022-08-08T11:51:39.686Z,3.42
2022-08-08T11:54:13.718Z,3.43
2022-08-08T11:57:14.602Z,3.30
2022-08-08T12:00:07.315Z,4.00
2022-08-08T12:02:57.335Z,3.20
2022-08-08T12:05:38.448Z,3.42
2022-08-08T12:08:06.357Z,3.70
2022-08-08T12:10:34.491Z,3.80
2022-08-08T12:13:09.758Z,4.15
2022-08-08T12:15:46.834Z,3.50
2022-08-08T12:18:24.412Z,4.18
2022-08-08T12:20:58.666Z,3.87
2022-08-08T12:23:43.693Z,3.60
2022-08-08T12:26:28.271Z,4.03
2022-08-08T12:29:36.259Z,4.00
2022-08-08T12:32:19.821Z,4.22
2022-08-08T12:35:01.185Z,3.50
2022-08-08T12:37:40.627Z,3.95
2022-08-08T12:40:24.145Z,4.72
2022-08-08T12:42:52.975Z,5.30
2022-08-08T12:45:58.544Z,4.97
2022-08-08T12:48:37.806Z,4.90
2022-08-08T12:51:07.830Z,4.80
2022-08-08T12:53:57.469Z,4.47
2022-08-08T12:56:38.204Z,4.40
2022-08-08T12:59:18.182Z,4.40
2022-08-08T13:01:57.338Z,3.80
2022-08-08T13:04:30.261Z,3.12
2022-08-08T13:07:02.992Z,3.50
2022-08-08T13:09:42.881Z,2.90
2022-08-08T13:12:36.194Z,3.10
2022-08-08T13:15:09.969Z,2.90
2022-08-08T13:18:08.644Z,3.22
2022-08-08T13:20:27.646Z,2.97
2022-08-08T13:23:29.960Z,2.67
2022-08-08T13:25:58.754Z,3.53
2022-08-08T13:28:31.874Z,3.27
2022-08-08T13:31:04.368Z,3.20
2022-08-08T13:33:42.314Z,3.12
2022-08-08T13:36:11.113Z,3.20
2022-08-08T13:38:39.915Z,3.58
2022-08-08T13:41:16.892Z,3.10
2022-08-08T13:43:47.042Z,3.60
2022-08-08T13:46:26.319Z,3.55
2022-08-08T13:50:33.578Z,3.15
2022-08-08T13:51:58.775Z,3.30
2022-08-08T13:54:31.779Z,3.97
2022-08-08T13:57:12.611Z,3.20
2022-08-08T13:59:48.156Z,4.35
2022-08-08T14:02:32.750Z,3.83
2022-08-08T14:05:20.286Z,5.37
2022-08-08T14:07:52.955Z,4.40
2022-08-08T14:10:33.381Z,4.47
2022-08-08T14:13:20.765Z,5.28
2022-08-08T14:16:04.623Z,3.95
2022-08-08T14:18:52.001Z,5.30
2022-08-08T14:21:31.299Z,4.67
2022-08-08T14:24:08.843Z,5.03
2022-08-08T14:26:41.705Z,4.20
2022-08-08T14:29:30.027Z,4.90
2022-08-08T14:32:10.937Z,4.60
2022-08-08T14:34:45.268Z,3.93
2022-08-08T14:37:17.076Z,4.28
2022-08-08T14:39:53.515Z,4.82
2022-08-08T14:42:54.955Z,3.58
2022-08-08T14:45:33.344Z,3.50
2022-08-08T14:48:27.374Z,2.90
2022-08-08T14:51:06.487Z,3.60
2022-08-08T14:53:37.162Z,3.55
2022-08-08T14:56:05.208Z,4.05
2022-08-08T14:58:33.361Z,3.40
2022-08-08T15:01:02.031Z,3.10
2022-08-08T15:03:38.685Z,3.50
2022-08-08T15:06:21.167Z,3.75
2022-08-08T15:08:54.468Z,3.33
2022-08-08T15:11:23.260Z,3.78
2022-08-08T15:14:01.017Z,4.00
2022-08-08T15:16:34.353Z,3.83
2022-08-08T15:19:03.769Z,3.15
2022-08-08T15:21:32.424Z,3.60
2022-08-08T15:24:00.545Z,3.40
2022-08-08T15:26:29.595Z,3.10
2022-08-08T15:28:57.703Z,3.00
2022-08-08T15:32:02.547Z,2.72
2022-08-08T15:34:29.936Z,2.20
2022-08-08T15:37:03.325Z,2.55
2022-08-08T15:39:38.062Z,1.97
2022-08-08T15:42:10.424Z,2.20
2022-08-08T15:44:42.266Z,1.85
2022-08-08T15:47:16.238Z,2.60
2022-08-08T15:49:49.063Z,2.70
2022-08-08T15:52:20.696Z,2.30
2022-08-08T15:54:52.183Z,2.65
2022-08-08T15:57:20.687Z,2.05
2022-08-08T16:00:06.225Z,2.37
2022-08-08T16:02:50.310Z,1.70
2022-08-08T16:05:21.120Z,1.90
2022-08-08T16:07:53.150Z,2.10
2022-08-08T16:13:13.952Z,2.33
2022-08-08T16:13:29.960Z,2.17
2022-08-08T16:16:13.255Z,2.30
2022-08-08T16:18:53.154Z,2.10
2022-08-08T16:21:32.013Z,2.40
2022-08-08T16:24:12.396Z,2.40
2022-08-08T16:26:42.357Z,2.28
2022-08-08T16:29:15.421Z,2.55
2022-08-08T16:31:49.225Z,2.33
2022-08-08T16:34:19.778Z,2.20
2022-08-08T16:36:50.548Z,2.40
2022-08-08T16:40:01.039Z,2.62
2022-08-08T16:42:17.962Z,3.40
2022-08-08T16:44:54.754Z,3.30
2022-08-08T16:47:40.451Z,3.37
2022-08-08T16:50:15.124Z,3.60
2022-08-08T16:55:01.829Z,2.90
2022-08-08T16:55:55.387Z,3.30
2022-08-08T16:58:26.997Z,3.07
2022-08-08T17:01:00.220Z,3.10
2022-08-08T17:03:58.021Z,3.47
2022-08-08T17:06:37.591Z,3.35
2022-08-08T17:09:03.589Z,3.95
2022-08-08T17:11:48.042Z,4.20
2022-08-08T17:14:19.221Z,4.43
2022-08-08T17:16:57.631Z,3.33
2022-08-08T17:19:29.658Z,4.07
2022-08-08T17:22:01.340Z,3.50
2022-08-08T17:24:30.549Z,3.83
2022-08-08T17:27:00.342Z,3.58
2022-08-08T17:29:34.009Z,4.70
2022-08-08T17:32:04.571Z,4.12
2022-08-08T17:35:04.398Z,4.37
2022-08-08T17:37:32.693Z,3.90
2022-08-08T17:40:10.809Z,4.15
2022-08-08T17:42:47.007Z,4.30
2022-08-08T17:45:22.814Z,4.62
2022-08-08T17:47:54.175Z,4.68
2022-08-08T17:50:24.761Z,4.20
2022-08-08T17:52:53.658Z,4.35
2022-08-08T17:56:06.064Z,3.67
2022-08-08T17:58:09.146Z,3.85
2022-08-08T18:00:41.045Z,3.97
2022-08-08T18:03:13.682Z,3.03
2022-08-08T18:05:48.696Z,2.72
2022-08-08T18:08:24.671Z,3.00
2022-08-08T18:11:11.771Z,2.90
2022-08-08T18:13:47.205Z,2.60
2022-08-08T18:16:17.237Z,2.93
2022-08-08T18:18:54.376Z,2.80
2022-08-08T18:22:00.109Z,2.90
2022-08-08T18:24:21.051Z,2.53
2022-08-08T18:26:53.857Z,2.87
2022-08-08T18:29:30.273Z,2.90
2022-08-08T18:32:07.175Z,2.85
2022-08-08T18:34:36.479Z,2.85
2022-08-08T18:37:06.470Z,3.22
2022-08-08T18:39:41.360Z,3.03
2022-08-08T18:42:15.717Z,2.90
2022-08-08T18:44:53.031Z,3.83
2022-08-08T18:47:27.302Z,3.22
2022-08-08T18:49:59.935Z,3.00
2022-08-08T18:52:29.865Z,3.03
2022-08-08T18:54:59.429Z,3.60
2022-08-08T18:57:41.788Z,2.87
2022-08-08T19:00:16.474Z,3.42
2022-08-08T19:02:55.656Z,2.97
2022-08-08T19:05:32.365Z,3.10
2022-08-08T19:08:24.969Z,2.70
2022-08-08T19:11:01.833Z,3.03
2022-08-08T19:13:53.387Z,2.75
2022-08-08T19:16:20.198Z,2.78
2022-08-08T19:19:00.368Z,3.62
2022-08-08T19:21:32.913Z,2.40
2022-08-08T19:24:05.475Z,3.03
2022-08-08T19:26:35.105Z,2.50
2022-08-08T19:29:04.099Z,2.78
2022-08-08T19:31:35.432Z,2.67
2022-08-08T19:34:29.834Z,2.10
2022-08-08T19:36:58.890Z,3.05
2022-08-08T19:39:34.836Z,3.00
2022-08-08T19:42:07.094Z,3.10
2022-08-08T19:44:45.633Z,3.50
2022-08-08T19:47:15.777Z,2.40
2022-08-08T19:50:00.388Z,2.97
2022-08-08T19:52:35.387Z,3.15
2022-08-08T19:55:12.562Z,2.75
2022-08-08T19:57:42.593Z,3.80
2022-08-08T20:00:29.296Z,2.87
2022-08-08T20:03:00.630Z,2.45
2022-08-08T20:06:15.243Z,2.60
2022-08-08T20:08:29.474Z,2.87
2022-08-08T20:11:00.840Z,2.80
2022-08-08T20:14:32.284Z,2.43
2022-08-08T20:16:20.472Z,2.97
2022-08-08T20:18:53.639Z,2.62
2022-08-08T20:21:25.315Z,2.85
2022-08-08T20:23:57.928Z,3.05
2022-08-08T20:26:33.391Z,2.90
2022-08-08T20:29:04.259Z,2.50
2022-08-08T20:32:08.136Z,3.22
2022-08-08T20:34:29.167Z,3.00
2022-08-08T20:37:03.595Z,2.97
2022-08-08T20:39:39.262Z,2.80
2022-08-08T20:42:29.267Z,2.72
2022-08-08T20:44:58.705Z,2.60
2022-08-08T20:47:26.823Z,2.50
2022-08-08T20:50:05.567Z,2.75
2022-08-08T20:52:33.245Z,2.63
2022-08-08T20:55:01.270Z,2.30
2022-08-08T20:57:35.772Z,2.12
2022-08-08T21:00:12.203Z,2.20
2022-08-08T21:02:40.267Z,2.45
2022-08-08T21:05:12.874Z,1.80
2022-08-08T21:08:33.921Z,2.22
2022-08-08T21:10:29.148Z,2.30
2022-08-08T21:12:57.762Z,2.47
2022-08-08T21:16:05.483Z,1.83
2022-08-08T21:18:13.743Z,2.33
2022-08-08T21:20:42.281Z,2.03
2022-08-08T21:23:13.277Z,2.25
2022-08-08T21:25:49.066Z,2.45
2022-08-08T21:28:33.334Z,2.37
2022-08-08T21:31:06.130Z,2.80
2022-08-08T21:33:49.963Z,2.70
2022-08-08T21:36:20.833Z,3.08
2022-08-08T21:38:50.395Z,2.75
2022-08-08T21:41:38.201Z,2.45
2022-08-08T21:44:06.010Z,2.53
2022-08-08T21:48:04.626Z,2.72
2022-08-08T21:49:22.101Z,2.65
2022-08-08T21:54:35.468Z,2.60
2022-08-08T21:54:54.164Z,2.78
2022-08-08T21:57:26.945Z,2.43
2022-08-08T22:00:02.451Z,1.95
2022-08-08T22:02:41.042Z,2.42
2022-08-08T22:05:10.178Z,2.42
2022-08-08T22:07:44.163Z,2.80
2022-08-08T22:10:32.002Z,2.33
2022-08-08T22:13:17.319Z,2.72
2022-08-08T22:15:59.301Z,2.80
2022-08-08T22:18:30.507Z,2.67
2022-08-08T22:21:13.944Z,2.22
2022-08-08T22:23:51.517Z,2.37
2022-08-08T22:26:28.967Z,2.60
2022-08-08T22:29:12.967Z,2.40
2022-08-08T22:32:01.804Z,2.72
2022-08-08T22:34:39.560Z,2.28
2022-08-08T22:37:15.002Z,2.90
2022-08-08T22:40:00.170Z,2.50
2022-08-08T22:42:31.755Z,2.62
2022-08-08T22:45:12.496Z,3.12
2022-08-08T22:47:49.407Z,2.60
2022-08-08T22:50:25.155Z,2.30
2022-08-08T22:53:22.499Z,2.47
2022-08-08T22:55:58.553Z,3.10
2022-08-08T22:58:31.163Z,2.15
2022-08-08T23:01:02.210Z,2.25
2022-08-08T23:03:53.445Z,1.90
2022-08-08T23:06:21.809Z,1.92
2022-08-08T23:08:55.019Z,2.55
2022-08-08T23:12:17.390Z,2.15
2022-08-08T23:14:18.112Z,2.60
2022-08-08T23:16:57.474Z,1.90
2022-08-08T23:19:31.101Z,2.15
2022-08-08T23:22:05.060Z,2.15
2022-08-08T23:24:41.175Z,2.42
2022-08-08T23:27:10.834Z,1.73
2022-08-08T23:29:55.927Z,2.97
2022-08-08T23:32:23.877Z,3.03
2022-08-08T23:34:59.242Z,2.30
2022-08-08T23:38:02.107Z,3.10
2022-08-08T23:40:16.518Z,2.95
2022-08-08T23:42:49.528Z,2.90
2022-08-08T23:45:19.285Z,3.15
2022-08-08T23:49:04.025Z,3.05
2022-08-08T23:50:57.165Z,2.28
2022-08-08T23:53:30.877Z,1.92
2022-08-08T23:56:13.232Z,2.77
2022-08-08T23:58:51.456Z,2.95
